Time;durP1;ratioP1;P1;durP2;ratioP2;P2;SDS_P1;SDS_P2;PMS_P1;PMS_P2;Temp;Humidity;BMP_temperature;BMP_pressure;BME280_temperature;BME280_humidity;BME280_pressure;Samples;Min_cycle;Max_cycle;Signal;HPM_P1;HPM_P2
2023/09/10 00:00:25;;;;;;;11.20;5.10;;;21.90;99.90;;;;;;4994917;28;20107;-70
2023/09/10 00:02:51;;;;;;;11.02;5.65;;;21.90;99.90;;;;;;4995412;28;20108;-69
2023/09/10 00:05:17;;;;;;;8.48;5.22;;;21.90;99.90;;;;;;5000765;28;20034;-73
2023/09/10 00:07:42;;;;;;;15.80;4.97;;;21.90;99.90;;;;;;4999501;28;20637;-71
2023/09/10 00:10:08;;;;;;;8.15;5.18;;;21.80;99.90;;;;;;4998751;28;20048;-72
2023/09/10 00:12:34;;;;;;;11.63;6.00;;;21.80;99.90;;;;;;5000565;28;20120;-71
2023/09/10 00:14:59;;;;;;;8.40;5.50;;;21.80;99.90;;;;;;5001872;28;20038;-71
2023/09/10 00:17:25;;;;;;;8.43;4.95;;;21.70;99.90;;;;;;4992317;28;20478;-71
2023/09/10 00:19:50;;;;;;;13.27;6.18;;;21.70;99.90;;;;;;4998044;28;20031;-71
2023/09/10 00:22:16;;;;;;;12.30;6.05;;;21.70;99.90;;;;;;4994002;28;20400;-70
2023/09/10 00:24:41;;;;;;;11.43;5.93;;;21.70;99.90;;;;;;4997288;28;20038;-71
2023/09/10 00:27:07;;;;;;;8.57;5.45;;;21.70;99.90;;;;;;4996366;28;20129;-71
2023/09/10 00:29:32;;;;;;;11.60;5.65;;;21.80;99.90;;;;;;4993335;28;20042;-71
2023/09/10 00:31:58;;;;;;;8.50;5.20;;;21.70;99.90;;;;;;5002252;28;20030;-71
2023/09/10 00:34:24;;;;;;;8.30;5.03;;;21.70;99.90;;;;;;5001356;28;20080;-71
2023/09/10 00:36:49;;;;;;;11.63;5.90;;;21.60;99.90;;;;;;4991189;28;20112;-70
2023/09/10 00:39:15;;;;;;;9.65;5.65;;;21.60;99.90;;;;;;4998364;28;20045;-71
2023/09/10 00:41:40;;;;;;;12.60;5.53;;;21.60;99.90;;;;;;4996179;28;20784;-70
2023/09/10 00:44:06;;;;;;;11.98;6.18;;;21.60;99.90;;;;;;5002054;28;20108;-71
2023/09/10 00:46:32;;;;;;;12.27;6.85;;;21.60;99.90;;;;;;5005464;28;20065;-70
2023/09/10 00:48:59;;;;;;;12.00;6.10;;;21.60;99.90;;;;;;4997406;28;20113;-71
2023/09/10 00:51:25;;;;;;;8.82;5.75;;;21.60;99.90;;;;;;4999982;28;20038;-71
2023/09/10 00:53:52;;;;;;;8.88;5.93;;;21.60;99.90;;;;;;4997247;28;20117;-71
2023/09/10 00:56:19;;;;;;;9.82;5.55;;;21.60;99.90;;;;;;4998306;28;20672;-72
2023/09/10 00:58:45;;;;;;;13.27;6.30;;;21.60;99.90;;;;;;5003530;28;20018;-72
2023/09/10 01:01:10;;;;;;;10.77;5.28;;;21.60;99.90;;;;;;5000585;28;20122;-72
2023/09/10 01:03:38;;;;;;;9.40;5.75;;;21.60;99.90;;;;;;4995656;28;20037;-72
2023/09/10 01:06:04;;;;;;;8.63;5.20;;;21.50;99.90;;;;;;5000907;28;20041;-72
2023/09/10 01:08:29;;;;;;;11.30;6.50;;;21.50;99.90;;;;;;5003636;28;20069;-71
2023/09/10 01:11:10;;;;;;;9.02;5.97;;;21.50;99.90;;;;;;5003624;28;20046;-72
2023/09/10 01:13:47;;;;;;;8.93;5.47;;;21.50;99.90;;;;;;4996632;28;20115;-70
2023/09/10 01:16:28;;;;;;;19.00;6.70;;;21.40;99.90;;;;;;5003108;28;20026;-71
2023/09/10 01:19:11;;;;;;;10.23;5.90;;;21.40;99.90;;;;;;4991784;28;20034;-71
2023/09/10 01:21:51;;;;;;;9.82;5.70;;;21.40;99.90;;;;;;5001215;28;20046;-70
2023/09/10 01:24:53;;;;;;;8.80;6.22;;;21.50;99.90;;;;;;4997309;28;20052;-71
2023/09/10 01:27:19;;;;;;;14.60;7.03;;;21.50;99.90;;;;;;4988987;28;20038;-72
2023/09/10 01:29:44;;;;;;;11.55;6.72;;;21.50;99.90;;;;;;4996803;28;20401;-71
2023/09/10 01:32:40;;;;;;;11.73;6.53;;;21.50;99.90;;;;;;5001182;28;20405;-71
2023/09/10 01:35:25;;;;;;;11.95;6.13;;;21.60;99.90;;;;;;4992679;28;20046;-70
2023/09/10 01:38:01;;;;;;;13.40;6.47;;;21.50;99.90;;;;;;4996116;28;20045;-70
2023/09/10 01:40:34;;;;;;;10.82;6.93;;;21.60;99.90;;;;;;4999924;28;20042;-70
2023/09/10 01:43:02;;;;;;;11.90;6.22;;;21.60;99.90;;;;;;4999336;28;20119;-71
2023/09/10 01:45:29;;;;;;;13.20;5.85;;;21.50;99.90;;;;;;5002486;28;20057;-71
2023/09/10 01:47:55;;;;;;;9.77;6.18;;;21.50;99.90;;;;;;4992585;28;20049;-71
2023/09/10 01:50:21;;;;;;;9.02;5.38;;;21.50;99.90;;;;;;4996371;28;20043;-71
2023/09/10 01:52:47;;;;;;;9.93;6.05;;;21.50;99.90;;;;;;4997623;28;20038;-70
2023/09/10 01:55:13;;;;;;;9.68;6.03;;;21.50;99.90;;;;;;4994360;28;20173;-72
2023/09/10 01:57:38;;;;;;;10.75;5.57;;;21.40;99.90;;;;;;5000190;28;20509;-72
2023/09/10 02:00:07;;;;;;;9.85;5.80;;;21.40;99.90;;;;;;5002597;28;20038;-71
2023/09/10 02:02:33;;;;;;;11.83;5.93;;;21.40;99.90;;;;;;4993207;28;20035;-71
2023/09/10 02:04:59;;;;;;;15.25;6.55;;;21.40;99.90;;;;;;5001717;28;20030;-71
2023/09/10 02:07:25;;;;;;;9.48;5.30;;;21.40;99.90;;;;;;4964504;28;1069909;-70
2023/09/10 02:09:50;;;;;;;12.82;5.22;;;21.40;99.90;;;;;;4997554;28;20501;-72
2023/09/10 02:12:16;;;;;;;8.68;5.20;;;21.40;99.90;;;;;;5000117;28;20095;-72
2023/09/10 02:14:47;;;;;;;11.23;5.85;;;21.40;99.90;;;;;;5004559;28;20049;-73
2023/09/10 02:17:13;;;;;;;9.65;5.15;;;21.40;99.90;;;;;;4997768;28;20168;-71
2023/09/10 02:19:39;;;;;;;8.98;5.28;;;21.30;99.90;;;;;;5000205;28;20132;-71
2023/09/10 02:22:04;;;;;;;10.05;5.07;;;21.40;99.90;;;;;;5001952;28;20050;-71
2023/09/10 02:24:30;;;;;;;9.43;5.40;;;21.30;99.90;;;;;;4998348;28;20406;-70
2023/09/10 02:26:55;;;;;;;8.15;5.40;;;21.30;99.90;;;;;;5006524;28;20034;-70
2023/09/10 02:29:21;;;;;;;6.82;4.72;;;21.30;99.90;;;;;;5001041;28;20042;-71
2023/09/10 02:31:46;;;;;;;11.98;5.60;;;21.20;99.90;;;;;;5007375;28;20041;-70
2023/09/10 02:34:12;;;;;;;11.73;5.10;;;21.20;99.90;;;;;;5005458;28;20041;-72
2023/09/10 02:36:38;;;;;;;9.88;4.90;;;21.10;99.90;;;;;;5005926;28;20033;-71
2023/09/10 02:39:03;;;;;;;7.53;5.32;;;21.10;99.90;;;;;;5009129;28;20436;-72
2023/09/10 02:41:29;;;;;;;9.27;5.63;;;21.00;99.90;;;;;;5002127;28;20030;-72
2023/09/10 02:43:54;;;;;;;9.15;5.13;;;21.00;99.90;;;;;;5006570;28;20041;-71
2023/09/10 02:46:20;;;;;;;12.68;5.57;;;21.00;99.90;;;;;;5006605;28;20038;-75
2023/09/10 02:48:45;;;;;;;9.00;5.55;;;21.00;99.90;;;;;;5002483;28;20084;-72
2023/09/10 02:51:11;;;;;;;11.60;6.05;;;21.00;99.90;;;;;;5005712;28;20038;-71
2023/09/10 02:53:36;;;;;;;7.43;4.63;;;21.00;99.90;;;;;;4999775;28;20061;-70
2023/09/10 02:56:02;;;;;;;10.38;5.55;;;21.00;99.90;;;;;;5005319;28;20077;-71
2023/09/10 02:58:29;;;;;;;7.50;4.97;;;20.90;99.90;;;;;;5010275;28;20473;-71
2023/09/10 03:00:55;;;;;;;9.02;5.13;;;20.90;99.90;;;;;;5003453;28;20038;-72
2023/09/10 03:03:22;;;;;;;7.43;5.03;;;20.80;99.90;;;;;;5005130;28;20041;-71
2023/09/10 03:05:48;;;;;;;9.40;5.57;;;20.80;99.90;;;;;;5002317;28;20052;-72
2023/09/10 03:08:13;;;;;;;7.88;5.55;;;20.80;99.90;;;;;;4996631;28;20486;-71
2023/09/10 03:10:39;;;;;;;12.57;5.70;;;20.70;99.90;;;;;;5003961;28;20080;-71
2023/09/10 03:13:04;;;;;;;11.82;5.80;;;20.70;99.90;;;;;;5005772;28;20121;-70
2023/09/10 03:15:30;;;;;;;9.85;5.40;;;20.70;99.90;;;;;;5007984;28;20111;-71
2023/09/10 03:17:56;;;;;;;10.00;5.22;;;20.70;99.90;;;;;;5005450;28;20109;-72
2023/09/10 03:20:21;;;;;;;10.20;5.68;;;20.70;99.90;;;;;;5004279;28;20037;-71
2023/09/10 03:22:47;;;;;;;11.40;5.97;;;20.70;99.90;;;;;;4996900;28;20070;-72
2023/09/10 03:25:12;;;;;;;11.52;5.45;;;20.70;99.90;;;;;;4998382;28;20034;-73
2023/09/10 03:27:38;;;;;;;9.93;5.97;;;20.70;99.90;;;;;;5002967;28;20072;-72
2023/09/10 03:30:05;;;;;;;9.07;5.13;;;20.60;99.90;;;;;;4997936;28;20038;-72
2023/09/10 03:32:31;;;;;;;8.40;5.63;;;20.70;99.90;;;;;;4994966;28;20414;-71
2023/09/10 03:34:56;;;;;;;9.48;6.05;;;20.70;99.90;;;;;;5001725;28;20030;-72
2023/09/10 03:37:22;;;;;;;10.23;5.88;;;20.70;99.90;;;;;;4999618;28;20041;-71
2023/09/10 03:39:47;;;;;;;8.25;5.55;;;20.70;99.90;;;;;;4997430;28;20087;-72
2023/09/10 03:42:13;;;;;;;10.75;6.22;;;20.70;99.90;;;;;;5005270;28;20046;-73
2023/09/10 03:44:39;;;;;;;10.55;5.80;;;20.70;99.90;;;;;;4993227;28;20402;-71
2023/09/10 03:47:04;;;;;;;11.30;6.63;;;20.70;99.90;;;;;;5000945;28;20509;-71
2023/09/10 03:49:30;;;;;;;10.90;6.35;;;20.70;99.90;;;;;;4998536;28;20038;-71
2023/09/10 03:51:59;;;;;;;10.82;6.65;;;20.70;99.90;;;;;;4994219;28;20038;-71
2023/09/10 03:54:24;;;;;;;11.80;6.97;;;20.70;99.90;;;;;;4996231;28;20386;-71
2023/09/10 03:56:50;;;;;;;10.82;7.07;;;20.70;99.90;;;;;;4997929;28;20038;-72
2023/09/10 03:59:15;;;;;;;12.27;6.90;;;20.80;99.90;;;;;;5002825;28;20909;-71
2023/09/10 04:01:41;;;;;;;18.45;8.50;;;20.80;99.90;;;;;;4998211;28;20046;-70
2023/09/10 04:04:07;;;;;;;12.32;7.10;;;20.80;99.90;;;;;;4999856;28;20037;-71
2023/09/10 04:06:32;;;;;;;12.68;7.47;;;20.80;99.90;;;;;;4997575;28;20048;-71
2023/09/10 04:08:59;;;;;;;15.43;7.80;;;20.90;99.90;;;;;;4996983;28;20502;-71
2023/09/10 04:11:24;;;;;;;15.55;8.02;;;20.80;99.90;;;;;;4999679;28;20038;-71
2023/09/10 04:13:50;;;;;;;20.58;8.50;;;20.80;99.90;;;;;;4998908;28;20529;-71
2023/09/10 04:16:16;;;;;;;12.70;7.68;;;20.80;99.90;;;;;;5011204;28;20609;-75
2023/09/10 04:18:41;;;;;;;14.13;8.10;;;20.80;99.90;;;;;;5004984;28;20402;-72
2023/09/10 04:21:07;;;;;;;12.60;7.90;;;20.80;99.90;;;;;;5000160;28;20034;-71
2023/09/10 04:23:33;;;;;;;12.90;7.35;;;20.80;99.90;;;;;;4999784;28;20034;-70
2023/09/10 04:25:58;;;;;;;11.63;7.07;;;20.70;99.90;;;;;;4997337;28;20038;-71
2023/09/10 04:28:24;;;;;;;18.35;8.93;;;20.80;99.90;;;;;;4994043;28;20041;-72
2023/09/10 04:30:50;;;;;;;11.32;7.70;;;20.80;99.90;;;;;;4999908;28;20439;-71
2023/09/10 04:33:18;;;;;;;14.48;7.47;;;20.80;99.90;;;;;;4997235;28;20030;-71
2023/09/10 04:35:49;;;;;;;12.52;7.45;;;20.80;99.90;;;;;;4993887;28;20033;-71
2023/09/10 04:38:14;;;;;;;15.48;8.35;;;20.80;99.90;;;;;;4999127;28;20037;-70
2023/09/10 04:40:41;;;;;;;17.23;8.20;;;20.80;99.90;;;;;;4997226;28;20048;-71
2023/09/10 04:43:07;;;;;;;19.52;7.60;;;20.70;99.90;;;;;;5005779;28;20038;-71
2023/09/10 04:45:33;;;;;;;14.65;8.15;;;20.70;99.90;;;;;;4997784;28;20068;-71
2023/09/10 04:47:58;;;;;;;15.50;8.05;;;20.70;99.90;;;;;;5005421;28;20062;-71
2023/09/10 04:50:24;;;;;;;17.20;7.88;;;20.60;99.90;;;;;;4997072;28;20521;-71
2023/09/10 04:52:50;;;;;;;15.80;8.50;;;20.60;99.90;;;;;;4995166;28;20038;-72
2023/09/10 04:55:16;;;;;;;13.15;7.85;;;20.60;99.90;;;;;;5003444;28;20034;-72
2023/09/10 04:57:41;;;;;;;11.75;7.18;;;20.60;99.90;;;;;;5003249;28;20041;-70
2023/09/10 05:00:09;;;;;;;15.63;9.05;;;20.50;99.90;;;;;;4998126;28;20049;-70
2023/09/10 05:02:34;;;;;;;14.93;7.68;;;20.50;99.90;;;;;;4996907;28;20569;-71
2023/09/10 05:05:00;;;;;;;11.80;7.18;;;20.50;99.90;;;;;;5001470;28;20039;-71
2023/09/10 05:07:25;;;;;;;15.52;8.45;;;20.50;99.90;;;;;;5003965;28;20409;-71
2023/09/10 05:09:51;;;;;;;13.35;8.35;;;20.40;99.90;;;;;;5000969;28;20115;-71
2023/09/10 05:12:16;;;;;;;15.27;8.57;;;20.40;99.90;;;;;;4999306;28;20042;-76
2023/09/10 05:14:42;;;;;;;15.60;8.20;;;20.40;99.90;;;;;;5008255;28;20040;-71
2023/09/10 05:17:07;;;;;;;12.57;7.78;;;20.40;99.90;;;;;;4994910;28;20122;-71
2023/09/10 05:19:33;;;;;;;11.68;7.90;;;20.40;99.90;;;;;;4999477;28;20137;-72
2023/09/10 05:21:59;;;;;;;13.77;8.95;;;20.40;99.90;;;;;;5007563;28;20491;-71
2023/09/10 05:24:25;;;;;;;12.32;7.72;;;20.40;99.90;;;;;;4996719;28;20449;-72
2023/09/10 05:26:50;;;;;;;15.23;8.23;;;20.40;99.90;;;;;;4998381;28;20093;-71
2023/09/10 05:29:16;;;;;;;14.10;8.00;;;20.40;99.90;;;;;;4996392;28;20053;-71
2023/09/10 05:31:41;;;;;;;13.48;7.85;;;20.40;99.90;;;;;;5000425;28;20030;-70
2023/09/10 05:34:07;;;;;;;14.23;8.20;;;20.40;99.90;;;;;;4999844;28;20041;-70
2023/09/10 05:36:34;;;;;;;12.60;8.18;;;20.40;99.90;;;;;;4995418;28;20088;-71
2023/09/10 05:39:00;;;;;;;12.38;7.80;;;20.50;99.90;;;;;;5005555;28;20487;-71
2023/09/10 05:41:26;;;;;;;19.30;8.77;;;20.50;99.90;;;;;;4997778;28;20090;-72
2023/09/10 05:43:51;;;;;;;14.85;8.38;;;20.50;99.90;;;;;;5002158;28;20030;-70
2023/09/10 05:46:17;;;;;;;16.23;9.05;;;20.50;99.90;;;;;;5000831;28;20386;-73
2023/09/10 05:48:43;;;;;;;15.27;7.47;;;20.50;99.90;;;;;;4998209;28;20030;-72
2023/09/10 05:51:08;;;;;;;13.15;8.40;;;20.50;99.90;;;;;;5001940;28;20505;-70
2023/09/10 05:53:34;;;;;;;16.33;8.80;;;20.50;99.90;;;;;;4998341;28;20041;-71
2023/09/10 05:56:03;;;;;;;13.65;7.68;;;20.50;99.90;;;;;;5004226;28;20895;-69
2023/09/10 05:58:29;;;;;;;15.95;8.25;;;20.60;99.90;;;;;;4996268;28;20026;-70
2023/09/10 06:00:54;;;;;;;12.57;8.10;;;20.60;99.90;;;;;;4999581;28;20034;-71
2023/09/10 06:03:20;;;;;;;13.90;8.43;;;20.70;99.90;;;;;;5007087;28;20109;-71
2023/09/10 06:05:46;;;;;;;13.55;7.47;;;20.70;99.90;;;;;;5011520;28;20064;-70
2023/09/10 06:08:11;;;;;;;13.48;7.95;;;20.70;99.90;;;;;;5010566;28;20030;-70
2023/09/10 06:10:37;;;;;;;14.82;8.90;;;20.80;99.90;;;;;;5002133;28;20640;-71
2023/09/10 06:13:02;;;;;;;13.85;8.75;;;20.80;99.90;;;;;;5004317;28;20030;-72
2023/09/10 06:15:28;;;;;;;16.95;8.95;;;20.90;99.90;;;;;;5006658;28;20036;-70
2023/09/10 06:17:54;;;;;;;13.05;7.88;;;20.90;99.90;;;;;;5001741;28;20045;-71
2023/09/10 06:20:19;;;;;;;13.13;8.15;;;20.90;99.90;;;;;;5004282;28;20501;-71
2023/09/10 06:22:45;;;;;;;12.43;7.85;;;20.90;99.90;;;;;;4999332;28;20085;-70
2023/09/10 06:25:10;;;;;;;16.10;8.55;;;21.00;99.90;;;;;;5003696;28;20046;-70
2023/09/10 06:27:36;;;;;;;13.30;7.93;;;21.10;99.90;;;;;;5000112;28;20037;-70
2023/09/10 06:30:02;;;;;;;12.55;6.90;;;21.10;99.90;;;;;;5004773;28;20033;-71
2023/09/10 06:32:27;;;;;;;13.48;8.57;;;21.20;99.90;;;;;;5003191;28;20038;-70
2023/09/10 06:34:53;;;;;;;12.73;8.10;;;21.40;99.90;;;;;;5001486;28;20093;-71
2023/09/10 06:37:19;;;;;;;11.82;8.07;;;21.50;99.90;;;;;;5006964;28;20034;-71
2023/09/10 06:39:44;;;;;;;15.18;8.38;;;21.60;99.90;;;;;;5004480;28;20133;-71
2023/09/10 06:42:12;;;;;;;15.27;9.60;;;21.60;99.90;;;;;;5005479;28;20046;-71
2023/09/10 06:44:42;;;;;;;13.25;8.55;;;21.70;99.90;;;;;;4999485;28;20034;-71
2023/09/10 06:47:08;;;;;;;15.83;8.10;;;21.80;99.90;;;;;;5006501;28;20037;-70
2023/09/10 06:49:34;;;;;;;16.70;9.25;;;21.80;99.90;;;;;;5005999;28;20359;-70
2023/09/10 06:51:59;;;;;;;17.67;9.23;;;21.80;99.90;;;;;;5000729;28;20431;-71
2023/09/10 06:54:25;;;;;;;17.52;10.02;;;21.90;99.90;;;;;;5004619;28;20034;-71
2023/09/10 06:56:51;;;;;;;15.93;8.60;;;22.00;99.90;;;;;;5002973;28;20038;-72
2023/09/10 06:59:17;;;;;;;16.65;10.15;;;22.00;99.90;;;;;;5009045;28;20042;-70
2023/09/10 07:01:42;;;;;;;16.40;9.38;;;22.10;99.90;;;;;;5000491;28;20046;-70
2023/09/10 07:04:23;;;;;;;18.25;10.18;;;22.20;99.90;;;;;;5004171;28;20137;-71
2023/09/10 07:06:51;;;;;;;16.45;9.50;;;22.20;99.90;;;;;;5007413;28;20046;-71
2023/09/10 07:09:17;;;;;;;15.32;9.02;;;22.30;99.90;;;;;;5005684;28;20041;-71
2023/09/10 07:11:43;;;;;;;20.73;10.80;;;22.30;99.90;;;;;;5006838;28;20042;-70
2023/09/10 07:14:08;;;;;;;18.83;9.93;;;22.40;99.90;;;;;;5005350;28;20367;-70
2023/09/10 07:16:34;;;;;;;20.23;10.40;;;22.40;99.90;;;;;;5005044;28;20041;-71
2023/09/10 07:19:01;;;;;;;21.15;11.55;;;22.50;99.90;;;;;;5000468;28;20042;-70
2023/09/10 07:21:27;;;;;;;24.27;10.57;;;22.60;99.90;;;;;;5002128;28;20030;-70
2023/09/10 07:23:53;;;;;;;22.13;11.38;;;22.60;99.90;;;;;;4997269;28;20109;-71
2023/09/10 07:26:19;;;;;;;15.88;10.35;;;22.70;99.90;;;;;;4999709;28;20145;-70
2023/09/10 07:28:44;;;;;;;17.90;10.93;;;22.70;99.90;;;;;;4998936;28;20105;-72
2023/09/10 07:31:10;;;;;;;18.85;10.68;;;22.80;99.90;;;;;;4991736;28;20034;-71
2023/09/10 07:33:35;;;;;;;17.40;10.52;;;22.80;99.90;;;;;;4995924;28;20041;-71
2023/09/10 07:36:01;;;;;;;18.27;10.63;;;22.90;99.90;;;;;;4997037;28;20423;-71
2023/09/10 07:38:26;;;;;;;16.05;9.82;;;23.00;99.90;;;;;;4991775;28;20030;-72
2023/09/10 07:40:52;;;;;;;15.98;8.90;;;23.00;99.90;;;;;;4998372;28;20106;-71
2023/09/10 07:43:18;;;;;;;22.77;11.32;;;23.00;99.90;;;;;;5002365;28;20038;-71
2023/09/10 07:45:44;;;;;;;19.17;10.25;;;23.00;99.90;;;;;;4998432;28;20037;-71
2023/09/10 07:48:11;;;;;;;16.45;9.85;;;23.10;99.90;;;;;;4999937;28;20038;-70
2023/09/10 07:50:37;;;;;;;20.50;9.18;;;23.20;99.90;;;;;;4999426;28;20034;-72
2023/09/10 07:53:03;;;;;;;17.20;10.68;;;23.30;99.90;;;;;;4997362;28;20165;-71
2023/09/10 07:55:28;;;;;;;20.25;9.82;;;23.50;99.90;;;;;;4993820;28;20068;-71
2023/09/10 07:57:54;;;;;;;19.27;9.57;;;23.60;99.90;;;;;;4996115;28;20065;-73
2023/09/10 08:00:20;;;;;;;18.77;10.57;;;23.60;99.90;;;;;;4996844;28;20069;-72
2023/09/10 08:02:46;;;;;;;17.80;10.07;;;23.70;99.90;;;;;;4993403;28;20127;-72
2023/09/10 08:05:11;;;;;;;16.85;8.52;;;23.80;99.90;;;;;;5003698;28;20037;-71
2023/09/10 08:07:37;;;;;;;16.83;9.93;;;23.90;99.90;;;;;;5003439;28;25114;-72
2023/09/10 08:10:03;;;;;;;18.17;9.32;;;23.90;99.90;;;;;;5001432;28;20112;-71
2023/09/10 08:12:29;;;;;;;16.23;8.32;;;24.00;99.90;;;;;;5002993;28;20099;-72
2023/09/10 08:14:54;;;;;;;18.85;9.35;;;24.10;99.90;;;;;;4999604;28;20478;-72
2023/09/10 08:17:21;;;;;;;14.75;8.43;;;24.10;99.90;;;;;;5001944;28;20067;-72
2023/09/10 08:19:46;;;;;;;15.93;9.20;;;24.20;99.90;;;;;;4997047;28;20057;-71
2023/09/10 08:22:12;;;;;;;19.50;9.52;;;24.30;99.90;;;;;;5002954;28;20533;-71
2023/09/10 08:24:37;;;;;;;20.75;8.35;;;24.30;99.90;;;;;;4996578;28;20135;-71
2023/09/10 08:27:03;;;;;;;16.60;8.95;;;24.40;99.90;;;;;;5000585;28;20133;-71
2023/09/10 08:29:29;;;;;;;17.65;8.30;;;24.50;99.90;;;;;;4997213;28;20033;-71
2023/09/10 08:31:56;;;;;;;15.18;8.35;;;24.50;99.90;;;;;;5000518;28;20505;-71
2023/09/10 08:34:22;;;;;;;17.55;9.23;;;24.60;99.90;;;;;;5000858;28;20034;-72
2023/09/10 08:36:47;;;;;;;21.00;8.73;;;24.60;99.90;;;;;;4998201;28;20041;-71
2023/09/10 08:39:13;;;;;;;13.05;7.68;;;24.80;99.90;;;;;;5001882;28;20856;-71
2023/09/10 08:42:00;;;;;;;15.98;7.65;;;24.90;99.90;;;;;;5003100;28;20576;-72
2023/09/10 08:44:27;;;;;;;15.05;8.05;;;25.00;99.90;;;;;;4997578;28;20030;-70
2023/09/10 08:46:58;;;;;;;18.27;8.48;;;25.00;99.90;;;;;;4997714;28;20065;-71
2023/09/10 08:49:26;;;;;;;20.02;7.95;;;25.00;99.90;;;;;;4989361;28;20049;-73
2023/09/10 08:51:52;;;;;;;14.73;8.07;;;25.10;99.90;;;;;;5001875;28;20069;-72
2023/09/10 08:54:18;;;;;;;15.48;8.00;;;25.20;99.90;;;;;;4993980;28;20053;-72
2023/09/10 08:56:44;;;;;;;13.18;8.23;;;25.20;99.90;;;;;;4995843;28;20498;-72
2023/09/10 08:59:12;;;;;;;18.55;8.18;;;25.30;99.90;;;;;;5003650;28;20038;-71
2023/09/10 09:01:38;;;;;;;12.50;7.78;;;25.40;99.90;;;;;;4995402;28;20504;-70
2023/09/10 09:04:04;;;;;;;12.43;7.30;;;25.60;99.90;;;;;;4996985;28;20037;-72
2023/09/10 09:06:33;;;;;;;14.63;8.50;;;25.70;99.90;;;;;;4994807;28;20068;-72
2023/09/10 09:09:05;;;;;;;10.85;7.07;;;25.60;99.90;;;;;;4997292;28;20030;-71
2023/09/10 09:11:35;;;;;;;17.88;8.43;;;25.70;99.90;;;;;;5002649;28;20410;-72
2023/09/10 09:14:03;;;;;;;16.58;7.35;;;25.80;99.90;;;;;;5000284;28;20049;-72
2023/09/10 09:16:30;;;;;;;14.13;7.32;;;25.90;99.90;;;;;;5005266;28;20026;-70
2023/09/10 09:18:57;;;;;;;12.48;6.47;;;26.00;99.90;;;;;;5005127;28;20124;-71
2023/09/10 09:21:24;;;;;;;12.25;7.53;;;26.00;99.90;;;;;;5001421;28;20067;-74
2023/09/10 09:24:01;;;;;;;12.50;7.00;;;26.10;99.90;;;;;;4997585;28;20348;-69
2023/09/10 09:26:28;;;;;;;14.07;7.35;;;26.30;99.90;;;;;;4994285;28;20078;-72
2023/09/10 09:28:58;;;;;;;14.00;6.82;;;26.40;99.90;;;;;;4998195;28;20036;-70
2023/09/10 09:31:24;;;;;;;9.80;5.95;;;26.50;99.90;;;;;;4998884;28;20498;-72
2023/09/10 09:33:51;;;;;;;12.63;6.72;;;26.60;99.90;;;;;;5003458;28;20045;-71
2023/09/10 09:36:16;;;;;;;11.50;5.68;;;26.60;99.90;;;;;;5002835;28;20042;-71
2023/09/10 09:38:44;;;;;;;18.35;6.18;;;26.70;99.90;;;;;;5002541;28;20561;-71
2023/09/10 09:41:10;;;;;;;9.73;5.75;;;26.70;99.90;;;;;;4999644;28;20188;-71
2023/09/10 09:43:36;;;;;;;9.02;5.03;;;26.80;99.90;;;;;;4999952;28;20037;-71
2023/09/10 09:46:03;;;;;;;10.88;5.60;;;26.80;99.90;;;;;;5002825;28;20038;-71
2023/09/10 09:48:29;;;;;;;15.60;6.53;;;26.90;99.90;;;;;;4992062;28;20161;-72
2023/09/10 09:50:56;;;;;;;10.70;4.82;;;27.00;99.90;;;;;;4999354;28;20041;-71
2023/09/10 09:53:30;;;;;;;10.43;6.30;;;27.10;99.90;;;;;;4999396;28;20498;-71
2023/09/10 09:56:00;;;;;;;11.50;5.57;;;27.20;99.90;;;;;;5002137;28;20498;-71
2023/09/10 09:58:27;;;;;;;11.88;5.53;;;27.20;99.90;;;;;;5005637;28;20018;-73
2023/09/10 10:00:53;;;;;;;22.02;6.18;;;27.30;99.90;;;;;;4992473;28;20037;-70
2023/09/10 10:03:19;;;;;;;11.77;4.82;;;27.40;99.90;;;;;;5001320;28;20045;-74
2023/09/10 10:05:49;;;;;;;11.00;4.95;;;27.50;99.90;;;;;;4999855;28;20036;-70
2023/09/10 10:08:16;;;;;;;11.77;5.15;;;27.60;99.90;;;;;;5007320;28;20129;-71
2023/09/10 10:10:47;;;;;;;12.30;5.68;;;27.70;99.90;;;;;;4998572;28;20045;-72
2023/09/10 10:13:18;;;;;;;10.75;5.78;;;27.70;99.90;;;;;;4999199;28;20151;-71
2023/09/10 10:15:48;;;;;;;10.82;4.97;;;27.80;99.90;;;;;;5008338;28;20390;-71
2023/09/10 10:18:14;;;;;;;;;;;27.80;99.90;;;;;;4995550;28;20375;-71
2023/09/10 10:20:41;;;;;;;8.98;5.15;;;27.80;99.90;;;;;;5002501;28;19913;-72
2023/09/10 10:23:08;;;;;;;9.05;5.05;;;27.80;99.90;;;;;;4996940;28;20117;-71
2023/09/10 10:25:35;;;;;;;15.43;4.55;;;27.90;99.90;;;;;;4997088;28;20041;-72
2023/09/10 10:28:03;;;;;;;10.10;4.82;;;27.90;99.90;;;;;;5008601;28;20046;-71
2023/09/10 10:30:30;;;;;;;12.00;5.20;;;27.90;99.90;;;;;;5001544;28;20040;-72
2023/09/10 10:32:58;;;;;;;10.90;4.70;;;28.00;99.90;;;;;;5001413;28;20494;-71
2023/09/10 10:35:28;;;;;;;11.05;5.25;;;28.10;99.90;;;;;;5005585;28;20048;-71
2023/09/10 10:38:03;;;;;;;12.93;5.38;;;28.20;99.90;;;;;;5000412;28;20128;-72
2023/09/10 10:40:35;;;;;;;6.90;4.55;;;28.30;99.90;;;;;;5001656;28;20038;-72
2023/09/10 10:43:29;;;;;;;11.38;4.32;;;28.20;99.90;;;;;;5006760;28;20497;-70
2023/09/10 10:45:56;;;;;;;6.95;3.38;;;28.20;99.90;;;;;;5005764;28;20052;-71
2023/09/10 10:48:26;;;;;;;7.28;3.40;;;28.30;99.90;;;;;;5006109;28;20108;-72
2023/09/10 10:50:53;;;;;;;8.50;3.38;;;28.20;99.90;;;;;;5006973;28;20137;-72
2023/09/10 10:53:23;;;;;;;14.68;4.03;;;28.30;99.90;;;;;;5004765;28;20046;-74
2023/09/10 10:55:51;;;;;;;17.05;5.18;;;28.30;99.90;;;;;;5009549;28;20073;-71
2023/09/10 10:58:19;;;;;;;9.02;4.80;;;28.30;99.90;;;;;;5002011;28;20710;-73
2023/09/10 11:00:49;;;;;;;13.57;5.07;;;28.40;99.90;;;;;;5004455;28;20394;-72
2023/09/10 11:03:16;;;;;;;11.00;4.47;;;28.40;99.90;;;;;;5001717;28;20042;-72
2023/09/10 11:05:54;;;;;;;9.45;4.35;;;28.30;99.90;;;;;;5009940;28;20033;-72
2023/09/10 11:08:38;;;;;;;10.57;4.30;;;28.40;99.90;;;;;;5010033;28;20053;-73
2023/09/10 11:11:08;;;;;;;15.00;4.35;;;28.40;99.90;;;;;;4999257;28;20040;-72
2023/09/10 11:13:54;;;;;;;11.10;5.18;;;28.40;99.90;;;;;;5000395;28;20114;-71
2023/09/10 11:16:19;;;;;;;9.88;5.55;;;28.50;99.90;;;;;;4998906;28;20394;-71
2023/09/10 11:18:46;;;;;;;11.43;5.15;;;28.50;99.90;;;;;;5001915;28;20053;-71
2023/09/10 11:21:14;;;;;;;12.15;5.07;;;28.60;99.90;;;;;;4992417;28;20030;-72
2023/09/10 11:24:01;;;;;;;12.52;5.45;;;28.60;99.90;;;;;;4997988;28;20618;-71
2023/09/10 11:26:26;;;;;;;8.98;4.50;;;28.60;99.90;;;;;;4997253;28;20042;-72
2023/09/10 11:28:57;;;;;;;9.02;3.10;;;28.60;99.90;;;;;;4999173;28;20029;-71
2023/09/10 11:31:46;;;;;;;10.02;4.28;;;28.60;99.90;;;;;;4992721;28;20026;-71
2023/09/10 11:34:15;;;;;;;5.32;3.20;;;28.60;99.90;;;;;;4998518;28;20038;-71
2023/09/10 11:36:42;;;;;;;9.38;4.30;;;28.60;99.90;;;;;;4999428;28;20037;-72
2023/09/10 11:39:08;;;;;;;7.50;3.85;;;28.60;99.90;;;;;;5004477;28;20033;-70
2023/09/10 11:41:34;;;;;;;7.20;4.07;;;28.60;99.90;;;;;;5000903;28;20030;-71
2023/09/10 11:44:03;;;;;;;14.98;4.97;;;28.60;99.90;;;;;;5000630;28;20030;-71
2023/09/10 11:46:29;;;;;;;9.52;4.20;;;28.70;99.90;;;;;;4996593;28;20543;-71
2023/09/10 11:48:55;;;;;;;4.43;2.75;;;28.60;99.90;;;;;;4996205;28;20041;-71
2023/09/10 11:51:20;;;;;;;7.78;3.20;;;28.60;99.90;;;;;;4997987;28;20112;-71
2023/09/10 11:53:46;;;;;;;7.85;2.75;;;28.60;99.90;;;;;;4999590;28;20037;-70
2023/09/10 11:56:12;;;;;;;14.48;3.45;;;28.60;99.90;;;;;;4997018;28;20609;-71
2023/09/10 11:58:38;;;;;;;7.80;2.40;;;28.60;99.90;;;;;;5003884;28;20037;-71
2023/09/10 12:01:04;;;;;;;10.55;2.67;;;28.60;99.90;;;;;;4997047;28;20495;-70
2023/09/10 12:03:31;;;;;;;8.25;2.75;;;28.50;99.90;;;;;;4996412;28;20180;-72
2023/09/10 12:06:00;;;;;;;7.72;2.42;;;28.60;99.90;;;;;;5004288;28;20042;-72
2023/09/10 12:08:26;;;;;;;6.53;2.57;;;28.60;99.90;;;;;;4994763;28;20109;-72
2023/09/10 12:10:58;;;;;;;7.03;2.80;;;28.60;99.90;;;;;;5000241;28;20042;-70
2023/09/10 12:13:24;;;;;;;11.38;3.38;;;28.60;99.90;;;;;;4998443;28;20026;-70
2023/09/10 12:15:52;;;;;;;5.15;2.83;;;28.80;99.90;;;;;;4998277;28;20601;-71
2023/09/10 12:18:18;;;;;;;12.90;3.55;;;28.80;99.90;;;;;;4996059;28;20394;-70
2023/09/10 12:20:44;;;;;;;6.97;3.15;;;28.90;99.90;;;;;;4996499;28;20042;-70
2023/09/10 12:23:10;;;;;;;7.00;2.78;;;28.90;99.90;;;;;;4996373;28;20037;-70
2023/09/10 12:25:35;;;;;;;8.30;3.97;;;28.90;99.90;;;;;;4999731;28;20026;-71
2023/09/10 12:28:01;;;;;;;8.00;3.47;;;28.90;99.90;;;;;;4997197;28;20038;-72
2023/09/10 12:30:27;;;;;;;7.13;3.08;;;28.90;99.90;;;;;;5004473;28;20073;-71
2023/09/10 12:32:53;;;;;;;6.15;2.67;;;28.90;99.90;;;;;;4999067;28;20088;-72
2023/09/10 12:35:20;;;;;;;7.38;3.03;;;28.80;99.90;;;;;;5000727;28;20120;-72
2023/09/10 12:37:53;;;;;;;7.43;2.75;;;28.70;99.90;;;;;;5001178;28;20041;-71